sensor_id;sensor_type;location;lat;lon;timestamp;temperature;humidity
4934;DHT22;2482;49.154;8.254;2023-12-22T00:00:23;8.90;99.90
4934;DHT22;2482;49.154;8.254;2023-12-22T00:02:50;9.00;99.90
4934;DHT22;2482;49.154;8.254;2023-12-22T00:05:17;9.00;99.90
4934;DHT22;2482;49.154;8.254;2023-12-22T00:07:44;8.90;99.90
4934;DHT22;2482;49.154;8.254;2023-12-22T00:10:11;8.90;99.90
4934;DHT22;2482;49.154;8.254;2023-12-22T00:12:38;8.90;99.90
4934;DHT22;2482;49.154;8.254;2023-12-22T00:15:05;8.90;99.90
4934;DHT22;2482;49.154;8.254;2023-12-22T00:17:33;8.90;99.90
4934;DHT22;2482;49.154;8.254;2023-12-22T00:20:00;8.90;99.90
4934;DHT22;2482;49.154;8.254;2023-12-22T00:22:29;8.80;99.90
4934;DHT22;2482;49.154;8.254;2023-12-22T00:24:57;8.80;99.90
4934;DHT22;2482;49.154;8.254;2023-12-22T00:27:24;8.90;99.90
4934;DHT22;2482;49.154;8.254;2023-12-22T00:29:51;9.00;99.90
4934;DHT22;2482;49.154;8.254;2023-12-22T00:32:18;9.00;99.90
4934;DHT22;2482;49.154;8.254;2023-12-22T00:34:45;9.10;99.90
4934;DHT22;2482;49.154;8.254;2023-12-22T00:37:13;9.20;99.90
4934;DHT22;2482;49.154;8.254;2023-12-22T00:39:40;9.20;99.90
4934;DHT22;2482;49.154;8.254;2023-12-22T00:42:08;9.20;99.90
4934;DHT22;2482;49.154;8.254;2023-12-22T00:44:35;9.20;99.90
4934;DHT22;2482;49.154;8.254;2023-12-22T00:47:02;9.20;99.90
4934;DHT22;2482;49.154;8.254;2023-12-22T00:49:29;9.20;99.90
4934;DHT22;2482;49.154;8.254;2023-12-22T00:51:56;9.20;99.90
4934;DHT22;2482;49.154;8.254;2023-12-22T00:54:23;9.30;99.90
4934;DHT22;2482;49.154;8.254;2023-12-22T00:56:51;9.30;99.90
4934;DHT22;2482;49.154;8.254;2023-12-22T00:59:18;9.30;99.90
4934;DHT22;2482;49.154;8.254;2023-12-22T01:01:46;9.30;99.90
4934;DHT22;2482;49.154;8.254;2023-12-22T01:04:13;9.30;99.90
4934;DHT22;2482;49.154;8.254;2023-12-22T01:06:40;9.30;99.90
4934;DHT22;2482;49.154;8.254;2023-12-22T01:09:08;9.20;99.90
4934;DHT22;2482;49.154;8.254;2023-12-22T01:11:35;9.20;99.90
4934;DHT22;2482;49.154;8.254;2023-12-22T01:14:02;9.20;99.90
4934;DHT22;2482;49.154;8.254;2023-12-22T01:16:30;9.20;99.90
4934;DHT22;2482;49.154;8.254;2023-12-22T01:18:57;9.10;99.90
4934;DHT22;2482;49.154;8.254;2023-12-22T01:21:24;9.10;99.90
4934;DHT22;2482;49.154;8.254;2023-12-22T01:23:52;9.00;99.90
4934;DHT22;2482;49.154;8.254;2023-12-22T01:26:19;9.00;99.90
4934;DHT22;2482;49.154;8.254;2023-12-22T01:28:46;9.00;99.90
4934;DHT22;2482;49.154;8.254;2023-12-22T01:31:13;9.00;99.90
4934;DHT22;2482;49.154;8.254;2023-12-22T01:33:40;8.90;99.90
4934;DHT22;2482;49.154;8.254;2023-12-22T01:36:09;8.90;99.90
4934;DHT22;2482;49.154;8.254;2023-12-22T01:38:36;8.90;99.90
4934;DHT22;2482;49.154;8.254;2023-12-22T01:41:04;8.90;99.90
4934;DHT22;2482;49.154;8.254;2023-12-22T01:43:31;8.90;99.90
4934;DHT22;2482;49.154;8.254;2023-12-22T01:45:59;9.00;99.90
4934;DHT22;2482;49.154;8.254;2023-12-22T01:48:28;8.90;99.90
4934;DHT22;2482;49.154;8.254;2023-12-22T01:50:56;8.90;99.90
4934;DHT22;2482;49.154;8.254;2023-12-22T01:53:26;8.90;99.90
4934;DHT22;2482;49.154;8.254;2023-12-22T01:55:58;8.80;99.90
4934;DHT22;2482;49.154;8.254;2023-12-22T01:58:27;8.80;99.90
4934;DHT22;2482;49.154;8.254;2023-12-22T02:00:55;8.70;99.90
4934;DHT22;2482;49.154;8.254;2023-12-22T02:03:23;8.70;99.90
4934;DHT22;2482;49.154;8.254;2023-12-22T02:05:50;8.70;99.90
4934;DHT22;2482;49.154;8.254;2023-12-22T02:08:18;8.70;99.90
4934;DHT22;2482;49.154;8.254;2023-12-22T02:10:46;8.70;99.90
4934;DHT22;2482;49.154;8.254;2023-12-22T02:13:14;8.70;99.90
4934;DHT22;2482;49.154;8.254;2023-12-22T02:15:41;8.70;99.90
4934;DHT22;2482;49.154;8.254;2023-12-22T02:18:18;8.60;99.90
4934;DHT22;2482;49.154;8.254;2023-12-22T02:20:49;8.60;99.90
4934;DHT22;2482;49.154;8.254;2023-12-22T02:23:17;8.60;99.90
4934;DHT22;2482;49.154;8.254;2023-12-22T02:25:44;8.60;99.90
4934;DHT22;2482;49.154;8.254;2023-12-22T02:28:16;8.70;99.90
4934;DHT22;2482;49.154;8.254;2023-12-22T02:31:16;8.70;99.90
4934;DHT22;2482;49.154;8.254;2023-12-22T02:33:46;8.70;99.90
4934;DHT22;2482;49.154;8.254;2023-12-22T02:36:15;8.60;99.90
4934;DHT22;2482;49.154;8.254;2023-12-22T02:38:44;8.80;99.90
4934;DHT22;2482;49.154;8.254;2023-12-22T02:41:12;8.70;99.90
4934;DHT22;2482;49.154;8.254;2023-12-22T02:43:39;8.70;99.90
4934;DHT22;2482;49.154;8.254;2023-12-22T02:46:14;8.80;99.90
4934;DHT22;2482;49.154;8.254;2023-12-22T02:48:41;8.90;99.90
4934;DHT22;2482;49.154;8.254;2023-12-22T02:51:10;8.70;99.90
4934;DHT22;2482;49.154;8.254;2023-12-22T02:53:37;8.80;99.90
4934;DHT22;2482;49.154;8.254;2023-12-22T02:56:06;8.80;99.90
4934;DHT22;2482;49.154;8.254;2023-12-22T02:58:33;8.90;99.90
4934;DHT22;2482;49.154;8.254;2023-12-22T03:01:00;8.90;99.90
4934;DHT22;2482;49.154;8.254;2023-12-22T03:03:27;8.90;99.90
4934;DHT22;2482;49.154;8.254;2023-12-22T03:05:54;9.00;99.90
4934;DHT22;2482;49.154;8.254;2023-12-22T03:08:21;8.90;99.90
4934;DHT22;2482;49.154;8.254;2023-12-22T03:10:48;8.90;99.90
4934;DHT22;2482;49.154;8.254;2023-12-22T03:13:16;9.00;99.90
4934;DHT22;2482;49.154;8.254;2023-12-22T03:15:43;8.90;99.90
4934;DHT22;2482;49.154;8.254;2023-12-22T03:18:10;9.00;99.90
4934;DHT22;2482;49.154;8.254;2023-12-22T03:20:37;8.90;99.90
4934;DHT22;2482;49.154;8.254;2023-12-22T03:23:05;8.90;99.90
4934;DHT22;2482;49.154;8.254;2023-12-22T03:25:32;8.70;99.90
4934;DHT22;2482;49.154;8.254;2023-12-22T03:27:59;8.70;99.90
4934;DHT22;2482;49.154;8.254;2023-12-22T03:30:28;8.60;99.90
4934;DHT22;2482;49.154;8.254;2023-12-22T03:32:55;8.60;99.90
4934;DHT22;2482;49.154;8.254;2023-12-22T03:35:23;8.60;99.90
4934;DHT22;2482;49.154;8.254;2023-12-22T03:37:50;8.60;99.90
4934;DHT22;2482;49.154;8.254;2023-12-22T03:40:17;8.70;99.90
4934;DHT22;2482;49.154;8.254;2023-12-22T03:42:44;8.60;99.90
4934;DHT22;2482;49.154;8.254;2023-12-22T03:45:11;8.70;99.90
4934;DHT22;2482;49.154;8.254;2023-12-22T03:47:39;8.70;99.90
4934;DHT22;2482;49.154;8.254;2023-12-22T03:50:06;8.80;99.90
4934;DHT22;2482;49.154;8.254;2023-12-22T03:52:33;8.80;99.90
4934;DHT22;2482;49.154;8.254;2023-12-22T03:55:01;8.80;99.90
4934;DHT22;2482;49.154;8.254;2023-12-22T03:57:28;8.80;99.90
4934;DHT22;2482;49.154;8.254;2023-12-22T03:59:55;8.80;99.90
4934;DHT22;2482;49.154;8.254;2023-12-22T04:02:22;8.80;99.90
4934;DHT22;2482;49.154;8.254;2023-12-22T04:04:49;8.70;99.90
4934;DHT22;2482;49.154;8.254;2023-12-22T04:07:16;8.80;99.90
4934;DHT22;2482;49.154;8.254;2023-12-22T04:09:45;8.80;99.90
4934;DHT22;2482;49.154;8.254;2023-12-22T04:12:12;8.80;99.90
4934;DHT22;2482;49.154;8.254;2023-12-22T04:14:39;8.70;99.90
4934;DHT22;2482;49.154;8.254;2023-12-22T04:17:06;8.70;99.90
4934;DHT22;2482;49.154;8.254;2023-12-22T04:19:33;8.70;99.90
4934;DHT22;2482;49.154;8.254;2023-12-22T04:22:01;8.70;99.90
4934;DHT22;2482;49.154;8.254;2023-12-22T04:24:29;8.70;99.90
4934;DHT22;2482;49.154;8.254;2023-12-22T04:26:57;8.70;99.90
4934;DHT22;2482;49.154;8.254;2023-12-22T04:29:24;8.70;99.90
4934;DHT22;2482;49.154;8.254;2023-12-22T04:31:51;8.60;99.90
4934;DHT22;2482;49.154;8.254;2023-12-22T04:34:18;8.60;99.90
4934;DHT22;2482;49.154;8.254;2023-12-22T04:36:45;8.60;99.90
4934;DHT22;2482;49.154;8.254;2023-12-22T04:39:13;8.70;99.90
4934;DHT22;2482;49.154;8.254;2023-12-22T04:41:41;8.70;99.90
4934;DHT22;2482;49.154;8.254;2023-12-22T04:44:08;8.60;99.90
4934;DHT22;2482;49.154;8.254;2023-12-22T04:46:34;8.70;99.90
4934;DHT22;2482;49.154;8.254;2023-12-22T04:49:03;8.70;99.90
4934;DHT22;2482;49.154;8.254;2023-12-22T04:51:30;8.70;99.90
4934;DHT22;2482;49.154;8.254;2023-12-22T04:53:58;8.80;99.90
4934;DHT22;2482;49.154;8.254;2023-12-22T04:56:26;8.80;99.90
4934;DHT22;2482;49.154;8.254;2023-12-22T04:58:53;8.80;99.90
4934;DHT22;2482;49.154;8.254;2023-12-22T05:01:20;8.80;99.90
4934;DHT22;2482;49.154;8.254;2023-12-22T05:03:48;8.80;99.90
4934;DHT22;2482;49.154;8.254;2023-12-22T05:06:15;8.80;99.90
4934;DHT22;2482;49.154;8.254;2023-12-22T05:08:42;8.80;99.90
4934;DHT22;2482;49.154;8.254;2023-12-22T05:11:10;8.90;99.90
4934;DHT22;2482;49.154;8.254;2023-12-22T05:13:37;8.80;99.90
4934;DHT22;2482;49.154;8.254;2023-12-22T05:16:04;8.80;99.90
4934;DHT22;2482;49.154;8.254;2023-12-22T05:18:32;8.90;99.90
4934;DHT22;2482;49.154;8.254;2023-12-22T05:20:59;8.90;99.90
4934;DHT22;2482;49.154;8.254;2023-12-22T05:23:26;8.90;99.90
4934;DHT22;2482;49.154;8.254;2023-12-22T05:25:53;9.00;99.90
4934;DHT22;2482;49.154;8.254;2023-12-22T05:28:20;9.00;99.90
4934;DHT22;2482;49.154;8.254;2023-12-22T05:30:47;9.00;99.90
4934;DHT22;2482;49.154;8.254;2023-12-22T05:33:15;9.00;99.90
4934;DHT22;2482;49.154;8.254;2023-12-22T05:35:42;9.10;99.90
4934;DHT22;2482;49.154;8.254;2023-12-22T05:38:09;9.10;99.90
4934;DHT22;2482;49.154;8.254;2023-12-22T05:40:36;9.10;99.90
4934;DHT22;2482;49.154;8.254;2023-12-22T05:43:03;9.10;99.90
4934;DHT22;2482;49.154;8.254;2023-12-22T05:45:30;9.10;99.90
4934;DHT22;2482;49.154;8.254;2023-12-22T05:47:57;9.10;99.90
4934;DHT22;2482;49.154;8.254;2023-12-22T05:50:25;9.10;99.90
4934;DHT22;2482;49.154;8.254;2023-12-22T05:52:53;9.10;99.90
4934;DHT22;2482;49.154;8.254;2023-12-22T05:55:20;9.10;99.90
4934;DHT22;2482;49.154;8.254;2023-12-22T05:57:47;9.00;99.90
4934;DHT22;2482;49.154;8.254;2023-12-22T06:00:15;9.10;99.90
4934;DHT22;2482;49.154;8.254;2023-12-22T06:02:43;9.00;99.90
4934;DHT22;2482;49.154;8.254;2023-12-22T06:05:11;9.00;99.90
4934;DHT22;2482;49.154;8.254;2023-12-22T06:07:38;9.00;99.90
4934;DHT22;2482;49.154;8.254;2023-12-22T06:10:05;9.10;99.90
4934;DHT22;2482;49.154;8.254;2023-12-22T06:12:33;9.10;99.90
4934;DHT22;2482;49.154;8.254;2023-12-22T06:15:00;9.10;99.90
4934;DHT22;2482;49.154;8.254;2023-12-22T06:17:28;9.10;99.90
4934;DHT22;2482;49.154;8.254;2023-12-22T06:19:55;9.10;99.90
4934;DHT22;2482;49.154;8.254;2023-12-22T06:22:22;9.10;99.90
4934;DHT22;2482;49.154;8.254;2023-12-22T06:24:50;9.10;99.90
4934;DHT22;2482;49.154;8.254;2023-12-22T06:27:17;9.10;99.90
4934;DHT22;2482;49.154;8.254;2023-12-22T06:29:44;9.00;99.90
4934;DHT22;2482;49.154;8.254;2023-12-22T06:32:11;9.00;99.90
4934;DHT22;2482;49.154;8.254;2023-12-22T06:34:39;9.00;99.90
4934;DHT22;2482;49.154;8.254;2023-12-22T06:37:06;9.00;99.90
4934;DHT22;2482;49.154;8.254;2023-12-22T06:39:34;8.90;99.90
4934;DHT22;2482;49.154;8.254;2023-12-22T06:42:01;8.90;99.90
4934;DHT22;2482;49.154;8.254;2023-12-22T06:44:30;8.80;99.90
4934;DHT22;2482;49.154;8.254;2023-12-22T06:47:01;8.80;99.90
4934;DHT22;2482;49.154;8.254;2023-12-22T06:49:28;8.80;99.90
4934;DHT22;2482;49.154;8.254;2023-12-22T06:51:55;8.70;99.90
4934;DHT22;2482;49.154;8.254;2023-12-22T06:54:22;8.70;99.90
4934;DHT22;2482;49.154;8.254;2023-12-22T06:56:49;8.70;99.90
4934;DHT22;2482;49.154;8.254;2023-12-22T06:59:17;8.70;99.90
4934;DHT22;2482;49.154;8.254;2023-12-22T07:01:46;8.60;99.90
4934;DHT22;2482;49.154;8.254;2023-12-22T07:04:29;8.60;99.90
4934;DHT22;2482;49.154;8.254;2023-12-22T07:06:56;8.60;99.90
4934;DHT22;2482;49.154;8.254;2023-12-22T07:11:51;8.60;99.90
4934;DHT22;2482;49.154;8.254;2023-12-22T07:14:23;8.60;99.90
4934;DHT22;2482;49.154;8.254;2023-12-22T07:16:50;8.70;99.90
4934;DHT22;2482;49.154;8.254;2023-12-22T07:19:17;8.70;99.90
4934;DHT22;2482;49.154;8.254;2023-12-22T07:21:45;8.70;99.90
4934;DHT22;2482;49.154;8.254;2023-12-22T07:24:13;8.70;99.90
4934;DHT22;2482;49.154;8.254;2023-12-22T07:26:42;8.60;99.90
4934;DHT22;2482;49.154;8.254;2023-12-22T07:29:11;8.50;99.90
4934;DHT22;2482;49.154;8.254;2023-12-22T07:31:38;8.50;99.90
4934;DHT22;2482;49.154;8.254;2023-12-22T07:34:05;8.40;99.90
4934;DHT22;2482;49.154;8.254;2023-12-22T07:36:35;8.40;99.90
4934;DHT22;2482;49.154;8.254;2023-12-22T07:39:13;8.40;99.90
4934;DHT22;2482;49.154;8.254;2023-12-22T07:41:44;8.30;99.90
4934;DHT22;2482;49.154;8.254;2023-12-22T07:44:11;8.20;99.90
4934;DHT22;2482;49.154;8.254;2023-12-22T07:46:39;8.20;99.90
4934;DHT22;2482;49.154;8.254;2023-12-22T07:49:09;8.30;99.90
4934;DHT22;2482;49.154;8.254;2023-12-22T07:51:37;8.30;99.90
4934;DHT22;2482;49.154;8.254;2023-12-22T07:54:04;8.20;99.90
4934;DHT22;2482;49.154;8.254;2023-12-22T07:56:33;8.30;99.90
4934;DHT22;2482;49.154;8.254;2023-12-22T07:59:00;8.40;99.90
4934;DHT22;2482;49.154;8.254;2023-12-22T08:01:48;8.30;99.90
4934;DHT22;2482;49.154;8.254;2023-12-22T08:04:15;8.20;99.90
4934;DHT22;2482;49.154;8.254;2023-12-22T08:06:42;8.20;99.90
4934;DHT22;2482;49.154;8.254;2023-12-22T08:09:09;8.10;99.90
4934;DHT22;2482;49.154;8.254;2023-12-22T08:11:36;8.10;99.90
4934;DHT22;2482;49.154;8.254;2023-12-22T08:14:03;8.10;99.90
4934;DHT22;2482;49.154;8.254;2023-12-22T08:16:30;8.10;99.90
4934;DHT22;2482;49.154;8.254;2023-12-22T08:18:59;8.10;99.90
4934;DHT22;2482;49.154;8.254;2023-12-22T08:21:26;8.10;99.90
4934;DHT22;2482;49.154;8.254;2023-12-22T08:24:10;8.10;99.90
4934;DHT22;2482;49.154;8.254;2023-12-22T08:26:47;8.20;99.90
4934;DHT22;2482;49.154;8.254;2023-12-22T08:29:14;8.30;99.90
4934;DHT22;2482;49.154;8.254;2023-12-22T08:31:43;8.30;99.90
4934;DHT22;2482;49.154;8.254;2023-12-22T08:34:11;8.40;99.90
4934;DHT22;2482;49.154;8.254;2023-12-22T08:36:38;8.40;99.90
4934;DHT22;2482;49.154;8.254;2023-12-22T08:39:05;8.40;99.90
4934;DHT22;2482;49.154;8.254;2023-12-22T08:41:33;8.60;99.90
4934;DHT22;2482;49.154;8.254;2023-12-22T08:44:04;8.50;99.90
4934;DHT22;2482;49.154;8.254;2023-12-22T08:46:33;8.60;99.90
4934;DHT22;2482;49.154;8.254;2023-12-22T08:49:02;8.60;99.90
4934;DHT22;2482;49.154;8.254;2023-12-22T08:51:30;8.70;99.90
4934;DHT22;2482;49.154;8.254;2023-12-22T08:53:58;8.70;99.90
4934;DHT22;2482;49.154;8.254;2023-12-22T08:56:25;8.80;99.90
4934;DHT22;2482;49.154;8.254;2023-12-22T08:58:54;8.80;99.90
4934;DHT22;2482;49.154;8.254;2023-12-22T09:01:22;8.90;99.90
4934;DHT22;2482;49.154;8.254;2023-12-22T09:03:51;8.90;99.90
4934;DHT22;2482;49.154;8.254;2023-12-22T09:06:21;8.90;99.90
4934;DHT22;2482;49.154;8.254;2023-12-22T09:08:49;9.00;99.90
4934;DHT22;2482;49.154;8.254;2023-12-22T09:11:17;9.00;99.90
4934;DHT22;2482;49.154;8.254;2023-12-22T09:13:46;9.10;99.90
4934;DHT22;2482;49.154;8.254;2023-12-22T09:16:13;9.10;99.90
4934;DHT22;2482;49.154;8.254;2023-12-22T09:18:43;9.10;99.90
4934;DHT22;2482;49.154;8.254;2023-12-22T09:21:11;9.10;99.90
4934;DHT22;2482;49.154;8.254;2023-12-22T09:23:38;9.10;99.90
4934;DHT22;2482;49.154;8.254;2023-12-22T09:26:05;9.10;99.90
4934;DHT22;2482;49.154;8.254;2023-12-22T09:28:33;9.00;99.90
4934;DHT22;2482;49.154;8.254;2023-12-22T09:31:00;9.10;99.90
4934;DHT22;2482;49.154;8.254;2023-12-22T09:33:27;9.20;99.90
4934;DHT22;2482;49.154;8.254;2023-12-22T09:35:54;9.20;99.90
4934;DHT22;2482;49.154;8.254;2023-12-22T09:38:22;9.20;99.90
4934;DHT22;2482;49.154;8.254;2023-12-22T09:40:51;9.20;99.90
4934;DHT22;2482;49.154;8.254;2023-12-22T09:43:19;9.20;99.90
4934;DHT22;2482;49.154;8.254;2023-12-22T09:45:46;9.30;99.90
4934;DHT22;2482;49.154;8.254;2023-12-22T09:48:17;9.30;99.90
4934;DHT22;2482;49.154;8.254;2023-12-22T09:50:47;9.30;99.90
4934;DHT22;2482;49.154;8.254;2023-12-22T09:53:16;9.30;99.90
4934;DHT22;2482;49.154;8.254;2023-12-22T09:55:45;9.40;99.90
4934;DHT22;2482;49.154;8.254;2023-12-22T09:58:16;9.40;99.90
4934;DHT22;2482;49.154;8.254;2023-12-22T10:00:44;9.40;99.90
4934;DHT22;2482;49.154;8.254;2023-12-22T10:03:12;9.40;99.90
4934;DHT22;2482;49.154;8.254;2023-12-22T10:05:43;9.40;99.90
4934;DHT22;2482;49.154;8.254;2023-12-22T10:08:10;9.40;99.90
4934;DHT22;2482;49.154;8.254;2023-12-22T10:10:39;9.40;99.90
4934;DHT22;2482;49.154;8.254;2023-12-22T10:13:12;9.40;99.90
4934;DHT22;2482;49.154;8.254;2023-12-22T10:15:43;9.40;99.90
4934;DHT22;2482;49.154;8.254;2023-12-22T10:18:12;9.40;99.90
4934;DHT22;2482;49.154;8.254;2023-12-22T10:20:44;9.50;99.90
4934;DHT22;2482;49.154;8.254;2023-12-22T10:23:13;9.40;99.90
4934;DHT22;2482;49.154;8.254;2023-12-22T10:25:40;9.40;99.90
4934;DHT22;2482;49.154;8.254;2023-12-22T10:28:12;9.40;99.90
4934;DHT22;2482;49.154;8.254;2023-12-22T10:30:40;9.30;99.90
4934;DHT22;2482;49.154;8.254;2023-12-22T10:33:08;9.30;99.90
4934;DHT22;2482;49.154;8.254;2023-12-22T10:35:35;9.30;99.90
4934;DHT22;2482;49.154;8.254;2023-12-22T10:38:03;9.30;99.90
4934;DHT22;2482;49.154;8.254;2023-12-22T10:40:31;9.20;99.90
4934;DHT22;2482;49.154;8.254;2023-12-22T10:42:59;9.10;99.90
4934;DHT22;2482;49.154;8.254;2023-12-22T10:45:27;9.10;99.90
4934;DHT22;2482;49.154;8.254;2023-12-22T10:47:56;9.10;99.90
4934;DHT22;2482;49.154;8.254;2023-12-22T10:50:24;9.00;99.90
4934;DHT22;2482;49.154;8.254;2023-12-22T10:52:51;9.10;99.90
4934;DHT22;2482;49.154;8.254;2023-12-22T10:55:19;9.00;99.90
4934;DHT22;2482;49.154;8.254;2023-12-22T10:57:46;9.00;99.90
4934;DHT22;2482;49.154;8.254;2023-12-22T11:00:19;9.00;99.90
4934;DHT22;2482;49.154;8.254;2023-12-22T11:02:57;9.00;99.90
4934;DHT22;2482;49.154;8.254;2023-12-22T11:05:28;8.90;99.90
4934;DHT22;2482;49.154;8.254;2023-12-22T11:07:56;8.80;99.90
4934;DHT22;2482;49.154;8.254;2023-12-22T11:10:31;8.90;99.90
4934;DHT22;2482;49.154;8.254;2023-12-22T11:12:59;8.80;99.90
4934;DHT22;2482;49.154;8.254;2023-12-22T11:15:27;8.70;99.90
4934;DHT22;2482;49.154;8.254;2023-12-22T11:17:57;8.60;99.90
4934;DHT22;2482;49.154;8.254;2023-12-22T11:20:27;8.70;99.90
4934;DHT22;2482;49.154;8.254;2023-12-22T11:23:02;8.70;99.90
4934;DHT22;2482;49.154;8.254;2023-12-22T11:25:31;8.60;99.90
4934;DHT22;2482;49.154;8.254;2023-12-22T11:28:00;8.60;99.90
4934;DHT22;2482;49.154;8.254;2023-12-22T11:30:29;8.60;99.90
4934;DHT22;2482;49.154;8.254;2023-12-22T11:32:58;8.60;99.90
4934;DHT22;2482;49.154;8.254;2023-12-22T11:35:27;8.70;99.90
4934;DHT22;2482;49.154;8.254;2023-12-22T11:38:01;8.60;99.90
4934;DHT22;2482;49.154;8.254;2023-12-22T11:40:30;8.60;99.90
4934;DHT22;2482;49.154;8.254;2023-12-22T11:42:59;8.70;99.90
4934;DHT22;2482;49.154;8.254;2023-12-22T11:45:30;8.70;99.90
4934;DHT22;2482;49.154;8.254;2023-12-22T11:48:06;8.80;99.90
4934;DHT22;2482;49.154;8.254;2023-12-22T11:50:34;8.80;99.90
4934;DHT22;2482;49.154;8.254;2023-12-22T11:53:21;8.80;99.90
4934;DHT22;2482;49.154;8.254;2023-12-22T11:56:02;8.80;99.90
4934;DHT22;2482;49.154;8.254;2023-12-22T11:58:45;8.90;99.90
4934;DHT22;2482;49.154;8.254;2023-12-22T12:01:19;8.90;99.90
4934;DHT22;2482;49.154;8.254;2023-12-22T12:03:51;8.90;99.90
4934;DHT22;2482;49.154;8.254;2023-12-22T12:08:56;8.90;99.90
4934;DHT22;2482;49.154;8.254;2023-12-22T12:11:23;8.90;99.90
4934;DHT22;2482;49.154;8.254;2023-12-22T12:13:50;8.80;99.90
4934;DHT22;2482;49.154;8.254;2023-12-22T12:16:20;8.80;99.90
4934;DHT22;2482;49.154;8.254;2023-12-22T12:18:51;8.80;99.90
4934;DHT22;2482;49.154;8.254;2023-12-22T12:21:20;8.80;99.90
4934;DHT22;2482;49.154;8.254;2023-12-22T12:23:49;8.80;99.90
4934;DHT22;2482;49.154;8.254;2023-12-22T12:26:17;8.80;99.90
4934;DHT22;2482;49.154;8.254;2023-12-22T12:28:45;8.80;99.90
4934;DHT22;2482;49.154;8.254;2023-12-22T12:31:14;8.70;99.90
4934;DHT22;2482;49.154;8.254;2023-12-22T12:33:41;8.80;99.90
4934;DHT22;2482;49.154;8.254;2023-12-22T12:36:10;8.90;99.90
4934;DHT22;2482;49.154;8.254;2023-12-22T12:38:54;8.90;99.90
4934;DHT22;2482;49.154;8.254;2023-12-22T12:41:29;8.90;99.90
4934;DHT22;2482;49.154;8.254;2023-12-22T12:44:03;9.10;99.90
4934;DHT22;2482;49.154;8.254;2023-12-22T12:46:41;9.00;99.90
4934;DHT22;2482;49.154;8.254;2023-12-22T12:49:10;9.10;99.90
4934;DHT22;2482;49.154;8.254;2023-12-22T12:51:43;9.10;99.90
4934;DHT22;2482;49.154;8.254;2023-12-22T12:54:11;9.10;99.90
4934;DHT22;2482;49.154;8.254;2023-12-22T12:56:41;9.10;99.90
4934;DHT22;2482;49.154;8.254;2023-12-22T12:59:14;9.10;99.90
4934;DHT22;2482;49.154;8.254;2023-12-22T13:01:44;9.10;99.90
4934;DHT22;2482;49.154;8.254;2023-12-22T13:04:13;9.20;99.90
4934;DHT22;2482;49.154;8.254;2023-12-22T13:09:11;9.30;99.90
4934;DHT22;2482;49.154;8.254;2023-12-22T13:11:40;9.20;99.90
4934;DHT22;2482;49.154;8.254;2023-12-22T13:14:11;9.20;99.90
4934;DHT22;2482;49.154;8.254;2023-12-22T13:16:39;9.20;99.90
4934;DHT22;2482;49.154;8.254;2023-12-22T13:19:06;9.40;99.90
4934;DHT22;2482;49.154;8.254;2023-12-22T13:21:35;9.50;99.90
4934;DHT22;2482;49.154;8.254;2023-12-22T13:24:15;9.60;99.90
4934;DHT22;2482;49.154;8.254;2023-12-22T13:26:44;9.80;99.90
4934;DHT22;2482;49.154;8.254;2023-12-22T13:29:12;9.90;99.90
4934;DHT22;2482;49.154;8.254;2023-12-22T13:31:41;10.00;99.90
4934;DHT22;2482;49.154;8.254;2023-12-22T13:34:13;10.00;99.90
4934;DHT22;2482;49.154;8.254;2023-12-22T13:36:41;10.10;99.90
4934;DHT22;2482;49.154;8.254;2023-12-22T13:39:11;10.10;99.90
4934;DHT22;2482;49.154;8.254;2023-12-22T13:41:42;10.10;99.90
4934;DHT22;2482;49.154;8.254;2023-12-22T13:44:13;10.10;99.90
4934;DHT22;2482;49.154;8.254;2023-12-22T13:46:41;10.20;99.90
4934;DHT22;2482;49.154;8.254;2023-12-22T13:49:09;10.20;99.90
4934;DHT22;2482;49.154;8.254;2023-12-22T13:51:41;10.30;99.90
4934;DHT22;2482;49.154;8.254;2023-12-22T13:54:11;10.30;99.90
4934;DHT22;2482;49.154;8.254;2023-12-22T13:56:38;10.30;99.90
4934;DHT22;2482;49.154;8.254;2023-12-22T13:59:10;10.40;99.90
4934;DHT22;2482;49.154;8.254;2023-12-22T14:01:38;10.40;99.90
4934;DHT22;2482;49.154;8.254;2023-12-22T14:04:07;10.40;99.90
4934;DHT22;2482;49.154;8.254;2023-12-22T14:06:37;10.40;99.90
4934;DHT22;2482;49.154;8.254;2023-12-22T14:09:05;10.40;99.90
4934;DHT22;2482;49.154;8.254;2023-12-22T14:11:32;10.50;99.90
4934;DHT22;2482;49.154;8.254;2023-12-22T14:13:59;10.50;99.90
4934;DHT22;2482;49.154;8.254;2023-12-22T14:16:27;10.50;99.90
4934;DHT22;2482;49.154;8.254;2023-12-22T14:18:57;10.50;99.90
4934;DHT22;2482;49.154;8.254;2023-12-22T14:21:24;10.50;99.90
4934;DHT22;2482;49.154;8.254;2023-12-22T14:23:51;10.60;99.90
4934;DHT22;2482;49.154;8.254;2023-12-22T14:26:18;10.60;99.90
4934;DHT22;2482;49.154;8.254;2023-12-22T14:28:45;10.60;99.90
4934;DHT22;2482;49.154;8.254;2023-12-22T14:31:17;10.60;99.90
4934;DHT22;2482;49.154;8.254;2023-12-22T14:33:44;10.60;99.90
4934;DHT22;2482;49.154;8.254;2023-12-22T14:36:11;10.60;99.90
4934;DHT22;2482;49.154;8.254;2023-12-22T14:38:38;10.60;99.90
4934;DHT22;2482;49.154;8.254;2023-12-22T14:41:06;10.60;99.90
4934;DHT22;2482;49.154;8.254;2023-12-22T14:43:35;10.60;99.90
4934;DHT22;2482;49.154;8.254;2023-12-22T14:46:02;10.60;99.90
4934;DHT22;2482;49.154;8.254;2023-12-22T14:48:29;10.60;99.90
4934;DHT22;2482;49.154;8.254;2023-12-22T14:50:57;10.60;99.90
4934;DHT22;2482;49.154;8.254;2023-12-22T14:53:24;10.60;99.90
4934;DHT22;2482;49.154;8.254;2023-12-22T14:55:51;10.60;99.90
4934;DHT22;2482;49.154;8.254;2023-12-22T14:58:20;10.60;99.90
4934;DHT22;2482;49.154;8.254;2023-12-22T15:00:47;10.70;99.90
4934;DHT22;2482;49.154;8.254;2023-12-22T15:03:14;10.70;99.90
4934;DHT22;2482;49.154;8.254;2023-12-22T15:05:41;10.70;99.90
4934;DHT22;2482;49.154;8.254;2023-12-22T15:08:09;10.80;99.90
4934;DHT22;2482;49.154;8.254;2023-12-22T15:10:36;10.80;99.90
4934;DHT22;2482;49.154;8.254;2023-12-22T15:13:03;10.70;99.90
4934;DHT22;2482;49.154;8.254;2023-12-22T15:15:30;10.70;99.90
4934;DHT22;2482;49.154;8.254;2023-12-22T15:17:57;10.70;99.90
4934;DHT22;2482;49.154;8.254;2023-12-22T15:20:24;10.70;99.90
4934;DHT22;2482;49.154;8.254;2023-12-22T15:22:51;10.70;99.90
4934;DHT22;2482;49.154;8.254;2023-12-22T15:25:18;10.70;99.90
4934;DHT22;2482;49.154;8.254;2023-12-22T15:27:47;10.70;99.90
4934;DHT22;2482;49.154;8.254;2023-12-22T15:30:15;10.80;99.90
4934;DHT22;2482;49.154;8.254;2023-12-22T15:32:42;10.90;99.90
4934;DHT22;2482;49.154;8.254;2023-12-22T15:35:09;10.80;99.90
4934;DHT22;2482;49.154;8.254;2023-12-22T15:37:38;10.80;99.90
4934;DHT22;2482;49.154;8.254;2023-12-22T15:40:05;10.80;99.90
4934;DHT22;2482;49.154;8.254;2023-12-22T15:42:33;10.80;99.90
4934;DHT22;2482;49.154;8.254;2023-12-22T15:45:00;10.80;99.90
4934;DHT22;2482;49.154;8.254;2023-12-22T15:47:27;10.80;99.90
4934;DHT22;2482;49.154;8.254;2023-12-22T15:49:54;10.80;99.90
4934;DHT22;2482;49.154;8.254;2023-12-22T15:52:21;10.90;99.90
4934;DHT22;2482;49.154;8.254;2023-12-22T15:54:48;10.90;99.90
4934;DHT22;2482;49.154;8.254;2023-12-22T15:57:15;10.80;99.90
4934;DHT22;2482;49.154;8.254;2023-12-22T15:59:42;10.80;99.90
4934;DHT22;2482;49.154;8.254;2023-12-22T16:02:09;10.80;99.90
4934;DHT22;2482;49.154;8.254;2023-12-22T16:04:36;10.80;99.90
4934;DHT22;2482;49.154;8.254;2023-12-22T16:07:03;10.90;99.90
4934;DHT22;2482;49.154;8.254;2023-12-22T16:09:34;10.90;99.90
4934;DHT22;2482;49.154;8.254;2023-12-22T16:12:01;10.80;99.90
4934;DHT22;2482;49.154;8.254;2023-12-22T16:14:32;10.80;99.90
4934;DHT22;2482;49.154;8.254;2023-12-22T16:17:01;10.80;99.90
4934;DHT22;2482;49.154;8.254;2023-12-22T16:19:28;10.80;99.90
4934;DHT22;2482;49.154;8.254;2023-12-22T16:21:55;10.80;99.90
4934;DHT22;2482;49.154;8.254;2023-12-22T16:24:22;10.80;99.90
4934;DHT22;2482;49.154;8.254;2023-12-22T16:26:49;10.80;99.90
4934;DHT22;2482;49.154;8.254;2023-12-22T16:29:16;10.80;99.90